sensor_id;sensor_type;location;lat;lon;timestamp;P1;durP1;ratioP1;P2;durP2;ratioP2
52248;SDS011;38541;48.130;8.378;2023-12-14T00:01:17;0.70;;;0.70;;
52248;SDS011;38541;48.130;8.378;2023-12-14T00:03:43;0.77;;;0.60;;
52248;SDS011;38541;48.130;8.378;2023-12-14T00:06:13;0.70;;;0.70;;
52248;SDS011;38541;48.130;8.378;2023-12-14T00:08:40;0.60;;;0.60;;
52248;SDS011;38541;48.130;8.378;2023-12-14T00:11:07;0.60;;;0.60;;
52248;SDS011;38541;48.130;8.378;2023-12-14T00:13:35;0.50;;;0.50;;
52248;SDS011;38541;48.130;8.378;2023-12-14T00:16:02;0.60;;;0.60;;
52248;SDS011;38541;48.130;8.378;2023-12-14T00:18:29;0.60;;;0.60;;
52248;SDS011;38541;48.130;8.378;2023-12-14T00:20:55;0.50;;;0.50;;
52248;SDS011;38541;48.130;8.378;2023-12-14T00:23:22;0.93;;;0.70;;
52248;SDS011;38541;48.130;8.378;2023-12-14T00:25:49;0.60;;;0.60;;
52248;SDS011;38541;48.130;8.378;2023-12-14T00:28:17;0.50;;;0.50;;
52248;SDS011;38541;48.130;8.378;2023-12-14T00:30:44;0.65;;;0.65;;
52248;SDS011;38541;48.130;8.378;2023-12-14T00:33:10;0.60;;;0.60;;
52248;SDS011;38541;48.130;8.378;2023-12-14T00:35:37;0.60;;;0.60;;
52248;SDS011;38541;48.130;8.378;2023-12-14T00:38:03;0.50;;;0.50;;
52248;SDS011;38541;48.130;8.378;2023-12-14T00:40:30;0.60;;;0.60;;
52248;SDS011;38541;48.130;8.378;2023-12-14T00:42:56;1.05;;;0.52;;
52248;SDS011;38541;48.130;8.378;2023-12-14T00:45:23;0.60;;;0.60;;
52248;SDS011;38541;48.130;8.378;2023-12-14T00:47:49;0.60;;;0.60;;
52248;SDS011;38541;48.130;8.378;2023-12-14T00:50:16;0.60;;;0.60;;
52248;SDS011;38541;48.130;8.378;2023-12-14T00:52:42;0.65;;;0.65;;
52248;SDS011;38541;48.130;8.378;2023-12-14T00:55:09;0.50;;;0.50;;
52248;SDS011;38541;48.130;8.378;2023-12-14T00:57:35;0.70;;;0.70;;
52248;SDS011;38541;48.130;8.378;2023-12-14T01:00:02;0.57;;;0.57;;
52248;SDS011;38541;48.130;8.378;2023-12-14T01:02:28;0.60;;;0.60;;
52248;SDS011;38541;48.130;8.378;2023-12-14T01:04:55;0.68;;;0.68;;
52248;SDS011;38541;48.130;8.378;2023-12-14T01:07:21;0.60;;;0.60;;
52248;SDS011;38541;48.130;8.378;2023-12-14T01:09:48;0.68;;;0.68;;
52248;SDS011;38541;48.130;8.378;2023-12-14T01:12:14;0.60;;;0.60;;
52248;SDS011;38541;48.130;8.378;2023-12-14T01:14:41;0.50;;;0.50;;
52248;SDS011;38541;48.130;8.378;2023-12-14T01:17:07;0.70;;;0.70;;
52248;SDS011;38541;48.130;8.378;2023-12-14T01:19:34;0.52;;;0.52;;
52248;SDS011;38541;48.130;8.378;2023-12-14T01:22:00;0.60;;;0.60;;
52248;SDS011;38541;48.130;8.378;2023-12-14T01:24:27;0.55;;;0.55;;
52248;SDS011;38541;48.130;8.378;2023-12-14T01:26:53;0.60;;;0.60;;
52248;SDS011;38541;48.130;8.378;2023-12-14T01:29:20;0.60;;;0.60;;
52248;SDS011;38541;48.130;8.378;2023-12-14T01:31:46;0.70;;;0.70;;
52248;SDS011;38541;48.130;8.378;2023-12-14T01:34:13;0.60;;;0.60;;
52248;SDS011;38541;48.130;8.378;2023-12-14T01:36:40;0.50;;;0.50;;
52248;SDS011;38541;48.130;8.378;2023-12-14T01:39:07;0.57;;;0.57;;
52248;SDS011;38541;48.130;8.378;2023-12-14T01:41:34;0.55;;;0.55;;
52248;SDS011;38541;48.130;8.378;2023-12-14T01:44:00;0.50;;;0.50;;
52248;SDS011;38541;48.130;8.378;2023-12-14T01:46:27;0.70;;;0.57;;
52248;SDS011;38541;48.130;8.378;2023-12-14T01:48:53;0.40;;;0.40;;
52248;SDS011;38541;48.130;8.378;2023-12-14T01:51:20;0.60;;;0.60;;
52248;SDS011;38541;48.130;8.378;2023-12-14T01:53:46;0.50;;;0.50;;
52248;SDS011;38541;48.130;8.378;2023-12-14T01:56:13;0.50;;;0.50;;
52248;SDS011;38541;48.130;8.378;2023-12-14T01:58:39;0.98;;;0.50;;
52248;SDS011;38541;48.130;8.378;2023-12-14T02:03:54;0.50;;;0.50;;
52248;SDS011;38541;48.130;8.378;2023-12-14T02:06:21;0.75;;;0.75;;
52248;SDS011;38541;48.130;8.378;2023-12-14T02:08:48;0.60;;;0.60;;
52248;SDS011;38541;48.130;8.378;2023-12-14T02:11:14;0.82;;;0.82;;
52248;SDS011;38541;48.130;8.378;2023-12-14T02:13:41;0.57;;;0.57;;
52248;SDS011;38541;48.130;8.378;2023-12-14T02:16:07;0.60;;;0.60;;
52248;SDS011;38541;48.130;8.378;2023-12-14T02:18:35;0.70;;;0.70;;
52248;SDS011;38541;48.130;8.378;2023-12-14T02:21:03;0.50;;;0.50;;
52248;SDS011;38541;48.130;8.378;2023-12-14T02:23:30;0.60;;;0.60;;
52248;SDS011;38541;48.130;8.378;2023-12-14T02:25:56;0.57;;;0.57;;
52248;SDS011;38541;48.130;8.378;2023-12-14T02:28:23;0.60;;;0.60;;
52248;SDS011;38541;48.130;8.378;2023-12-14T02:30:49;0.50;;;0.50;;
52248;SDS011;38541;48.130;8.378;2023-12-14T02:33:16;0.68;;;0.60;;
52248;SDS011;38541;48.130;8.378;2023-12-14T02:35:43;0.50;;;0.50;;
52248;SDS011;38541;48.130;8.378;2023-12-14T02:38:09;0.50;;;0.50;;
52248;SDS011;38541;48.130;8.378;2023-12-14T02:40:36;0.70;;;0.70;;
52248;SDS011;38541;48.130;8.378;2023-12-14T02:43:02;0.60;;;0.60;;
52248;SDS011;38541;48.130;8.378;2023-12-14T02:45:29;0.50;;;0.50;;
52248;SDS011;38541;48.130;8.378;2023-12-14T02:47:55;0.50;;;0.50;;
52248;SDS011;38541;48.130;8.378;2023-12-14T02:50:22;0.63;;;0.63;;
52248;SDS011;38541;48.130;8.378;2023-12-14T02:52:48;0.70;;;0.70;;
52248;SDS011;38541;48.130;8.378;2023-12-14T02:55:15;0.80;;;0.80;;
52248;SDS011;38541;48.130;8.378;2023-12-14T02:57:41;0.60;;;0.60;;
52248;SDS011;38541;48.130;8.378;2023-12-14T03:00:08;0.70;;;0.70;;
52248;SDS011;38541;48.130;8.378;2023-12-14T03:02:35;0.77;;;0.77;;
52248;SDS011;38541;48.130;8.378;2023-12-14T03:05:02;0.70;;;0.70;;
52248;SDS011;38541;48.130;8.378;2023-12-14T03:07:28;0.65;;;0.65;;
52248;SDS011;38541;48.130;8.378;2023-12-14T03:09:55;0.60;;;0.60;;
52248;SDS011;38541;48.130;8.378;2023-12-14T03:12:21;0.90;;;0.90;;
52248;SDS011;38541;48.130;8.378;2023-12-14T03:14:48;0.70;;;0.70;;
52248;SDS011;38541;48.130;8.378;2023-12-14T03:17:14;0.75;;;0.75;;
52248;SDS011;38541;48.130;8.378;2023-12-14T03:19:42;0.80;;;0.80;;
52248;SDS011;38541;48.130;8.378;2023-12-14T03:22:09;0.65;;;0.65;;
52248;SDS011;38541;48.130;8.378;2023-12-14T03:24:36;0.70;;;0.70;;
52248;SDS011;38541;48.130;8.378;2023-12-14T03:27:03;0.63;;;0.63;;
52248;SDS011;38541;48.130;8.378;2023-12-14T03:29:29;0.90;;;0.90;;
52248;SDS011;38541;48.130;8.378;2023-12-14T03:31:56;1.00;;;1.00;;
52248;SDS011;38541;48.130;8.378;2023-12-14T03:34:23;0.70;;;0.70;;
52248;SDS011;38541;48.130;8.378;2023-12-14T03:36:50;1.00;;;1.00;;
52248;SDS011;38541;48.130;8.378;2023-12-14T03:39:17;0.80;;;0.80;;
52248;SDS011;38541;48.130;8.378;2023-12-14T03:41:44;0.70;;;0.70;;
52248;SDS011;38541;48.130;8.378;2023-12-14T03:44:11;0.75;;;0.75;;
52248;SDS011;38541;48.130;8.378;2023-12-14T03:46:37;1.05;;;1.05;;
52248;SDS011;38541;48.130;8.378;2023-12-14T03:49:04;0.80;;;0.80;;
52248;SDS011;38541;48.130;8.378;2023-12-14T03:51:30;1.15;;;1.05;;
52248;SDS011;38541;48.130;8.378;2023-12-14T03:53:57;0.90;;;0.90;;
52248;SDS011;38541;48.130;8.378;2023-12-14T03:56:23;1.05;;;0.90;;
52248;SDS011;38541;48.130;8.378;2023-12-14T03:58:50;0.73;;;0.73;;
52248;SDS011;38541;48.130;8.378;2023-12-14T04:01:17;0.82;;;0.80;;
52248;SDS011;38541;48.130;8.378;2023-12-14T04:03:44;0.88;;;0.88;;
52248;SDS011;38541;48.130;8.378;2023-12-14T04:06:12;1.08;;;1.00;;
52248;SDS011;38541;48.130;8.378;2023-12-14T04:08:39;0.88;;;0.88;;
52248;SDS011;38541;48.130;8.378;2023-12-14T04:11:06;1.00;;;1.00;;
52248;SDS011;38541;48.130;8.378;2023-12-14T04:13:34;1.05;;;1.05;;
52248;SDS011;38541;48.130;8.378;2023-12-14T04:16:00;1.30;;;1.20;;
52248;SDS011;38541;48.130;8.378;2023-12-14T04:18:27;1.17;;;1.10;;
52248;SDS011;38541;48.130;8.378;2023-12-14T04:20:54;1.20;;;1.20;;
52248;SDS011;38541;48.130;8.378;2023-12-14T04:23:21;1.30;;;1.20;;
52248;SDS011;38541;48.130;8.378;2023-12-14T04:25:47;2.13;;;1.92;;
52248;SDS011;38541;48.130;8.378;2023-12-14T04:28:14;1.27;;;1.17;;
52248;SDS011;38541;48.130;8.378;2023-12-14T04:30:40;1.83;;;1.73;;
52248;SDS011;38541;48.130;8.378;2023-12-14T04:33:07;1.92;;;1.83;;
52248;SDS011;38541;48.130;8.378;2023-12-14T04:35:33;1.30;;;1.30;;
52248;SDS011;38541;48.130;8.378;2023-12-14T04:38:03;1.70;;;1.60;;
52248;SDS011;38541;48.130;8.378;2023-12-14T04:40:29;1.30;;;1.30;;
52248;SDS011;38541;48.130;8.378;2023-12-14T04:42:56;1.23;;;1.20;;
52248;SDS011;38541;48.130;8.378;2023-12-14T04:45:22;1.30;;;1.20;;
52248;SDS011;38541;48.130;8.378;2023-12-14T04:47:49;1.30;;;1.20;;
52248;SDS011;38541;48.130;8.378;2023-12-14T04:50:15;1.73;;;1.63;;
52248;SDS011;38541;48.130;8.378;2023-12-14T04:52:42;1.55;;;1.45;;
52248;SDS011;38541;48.130;8.378;2023-12-14T04:55:11;1.80;;;1.70;;
52248;SDS011;38541;48.130;8.378;2023-12-14T04:57:38;2.20;;;2.10;;
52248;SDS011;38541;48.130;8.378;2023-12-14T05:00:05;2.38;;;2.20;;
52248;SDS011;38541;48.130;8.378;2023-12-14T05:02:32;1.58;;;1.48;;
52248;SDS011;38541;48.130;8.378;2023-12-14T05:04:59;1.50;;;1.40;;
52248;SDS011;38541;48.130;8.378;2023-12-14T05:07:26;1.50;;;1.40;;
52248;SDS011;38541;48.130;8.378;2023-12-14T05:09:52;1.50;;;1.40;;
52248;SDS011;38541;48.130;8.378;2023-12-14T05:12:19;1.20;;;1.20;;
52248;SDS011;38541;48.130;8.378;2023-12-14T05:14:45;1.42;;;1.33;;
52248;SDS011;38541;48.130;8.378;2023-12-14T05:17:12;1.50;;;1.40;;
52248;SDS011;38541;48.130;8.378;2023-12-14T05:19:38;1.30;;;1.27;;
52248;SDS011;38541;48.130;8.378;2023-12-14T05:22:05;1.27;;;1.20;;
52248;SDS011;38541;48.130;8.378;2023-12-14T05:24:31;1.60;;;1.50;;
52248;SDS011;38541;48.130;8.378;2023-12-14T05:26:58;1.10;;;1.10;;
52248;SDS011;38541;48.130;8.378;2023-12-14T05:29:24;1.20;;;1.20;;
52248;SDS011;38541;48.130;8.378;2023-12-14T05:31:51;1.50;;;1.40;;
52248;SDS011;38541;48.130;8.378;2023-12-14T05:34:17;2.55;;;1.20;;
52248;SDS011;38541;48.130;8.378;2023-12-14T05:36:44;1.13;;;1.13;;
52248;SDS011;38541;48.130;8.378;2023-12-14T05:39:10;1.48;;;1.38;;
52248;SDS011;38541;48.130;8.378;2023-12-14T05:41:40;1.50;;;1.40;;
52248;SDS011;38541;48.130;8.378;2023-12-14T05:44:08;1.63;;;1.52;;
52248;SDS011;38541;48.130;8.378;2023-12-14T05:46:34;0.90;;;0.90;;
52248;SDS011;38541;48.130;8.378;2023-12-14T05:49:02;0.95;;;0.95;;
52248;SDS011;38541;48.130;8.378;2023-12-14T05:51:29;1.40;;;1.33;;
52248;SDS011;38541;48.130;8.378;2023-12-14T05:53:57;0.73;;;0.73;;
52248;SDS011;38541;48.130;8.378;2023-12-14T05:56:24;0.70;;;0.70;;
52248;SDS011;38541;48.130;8.378;2023-12-14T05:58:51;0.70;;;0.70;;
52248;SDS011;38541;48.130;8.378;2023-12-14T06:01:18;1.17;;;1.10;;
52248;SDS011;38541;48.130;8.378;2023-12-14T06:03:46;1.33;;;1.23;;
52248;SDS011;38541;48.130;8.378;2023-12-14T06:06:12;9.52;;;5.03;;
52248;SDS011;38541;48.130;8.378;2023-12-14T06:08:42;7.97;;;3.75;;
52248;SDS011;38541;48.130;8.378;2023-12-14T06:11:09;3.72;;;2.63;;
52248;SDS011;38541;48.130;8.378;2023-12-14T06:13:35;8.80;;;3.90;;
52248;SDS011;38541;48.130;8.378;2023-12-14T06:16:02;3.15;;;1.95;;
52248;SDS011;38541;48.130;8.378;2023-12-14T06:18:29;1.80;;;1.30;;
52248;SDS011;38541;48.130;8.378;2023-12-14T06:20:56;1.08;;;1.00;;
52248;SDS011;38541;48.130;8.378;2023-12-14T06:23:23;1.30;;;1.20;;
52248;SDS011;38541;48.130;8.378;2023-12-14T06:25:49;1.08;;;0.90;;
52248;SDS011;38541;48.130;8.378;2023-12-14T06:28:16;0.95;;;0.95;;
52248;SDS011;38541;48.130;8.378;2023-12-14T06:30:42;0.80;;;0.80;;
52248;SDS011;38541;48.130;8.378;2023-12-14T06:33:09;4.60;;;1.02;;
52248;SDS011;38541;48.130;8.378;2023-12-14T06:35:36;1.15;;;1.10;;
52248;SDS011;38541;48.130;8.378;2023-12-14T06:38:03;1.85;;;1.10;;
52248;SDS011;38541;48.130;8.378;2023-12-14T06:40:30;1.17;;;1.08;;
52248;SDS011;38541;48.130;8.378;2023-12-14T06:42:56;4.38;;;2.42;;
52248;SDS011;38541;48.130;8.378;2023-12-14T06:45:23;3.03;;;2.20;;
52248;SDS011;38541;48.130;8.378;2023-12-14T06:47:49;2.40;;;1.58;;
52248;SDS011;38541;48.130;8.378;2023-12-14T06:50:16;1.73;;;1.48;;
52248;SDS011;38541;48.130;8.378;2023-12-14T06:52:43;1.70;;;1.42;;
52248;SDS011;38541;48.130;8.378;2023-12-14T06:55:09;1.55;;;1.42;;
52248;SDS011;38541;48.130;8.378;2023-12-14T06:57:36;2.08;;;1.63;;
52248;SDS011;38541;48.130;8.378;2023-12-14T07:00:03;2.30;;;2.10;;
52248;SDS011;38541;48.130;8.378;2023-12-14T07:02:30;1.58;;;1.20;;
52248;SDS011;38541;48.130;8.378;2023-12-14T07:04:57;1.40;;;1.30;;
52248;SDS011;38541;48.130;8.378;2023-12-14T07:07:23;1.20;;;1.10;;
52248;SDS011;38541;48.130;8.378;2023-12-14T07:09:50;1.23;;;1.13;;
52248;SDS011;38541;48.130;8.378;2023-12-14T07:12:16;0.90;;;0.90;;
52248;SDS011;38541;48.130;8.378;2023-12-14T07:14:43;0.70;;;0.70;;
52248;SDS011;38541;48.130;8.378;2023-12-14T07:17:09;0.90;;;0.90;;
52248;SDS011;38541;48.130;8.378;2023-12-14T07:19:36;1.10;;;1.00;;
52248;SDS011;38541;48.130;8.378;2023-12-14T07:22:02;1.20;;;1.10;;
52248;SDS011;38541;48.130;8.378;2023-12-14T07:24:29;1.30;;;1.20;;
52248;SDS011;38541;48.130;8.378;2023-12-14T07:27:10;0.90;;;0.90;;
52248;SDS011;38541;48.130;8.378;2023-12-14T07:29:36;1.10;;;1.00;;
52248;SDS011;38541;48.130;8.378;2023-12-14T07:32:03;1.20;;;1.10;;
52248;SDS011;38541;48.130;8.378;2023-12-14T07:34:29;2.17;;;1.40;;
52248;SDS011;38541;48.130;8.378;2023-12-14T07:36:57;0.70;;;0.70;;
52248;SDS011;38541;48.130;8.378;2023-12-14T07:39:23;0.80;;;0.80;;
52248;SDS011;38541;48.130;8.378;2023-12-14T07:41:49;1.20;;;1.10;;
52248;SDS011;38541;48.130;8.378;2023-12-14T07:44:16;1.08;;;1.08;;
52248;SDS011;38541;48.130;8.378;2023-12-14T07:46:42;1.00;;;1.00;;
52248;SDS011;38541;48.130;8.378;2023-12-14T07:49:09;1.27;;;0.80;;
52248;SDS011;38541;48.130;8.378;2023-12-14T07:51:36;1.20;;;1.10;;
52248;SDS011;38541;48.130;8.378;2023-12-14T07:54:03;5.07;;;2.92;;
52248;SDS011;38541;48.130;8.378;2023-12-14T07:56:30;3.05;;;2.25;;
52248;SDS011;38541;48.130;8.378;2023-12-14T07:58:58;1.75;;;1.20;;
52248;SDS011;38541;48.130;8.378;2023-12-14T08:01:25;1.23;;;1.10;;
52248;SDS011;38541;48.130;8.378;2023-12-14T08:03:52;3.13;;;1.25;;
52248;SDS011;38541;48.130;8.378;2023-12-14T08:06:18;2.08;;;1.10;;
52248;SDS011;38541;48.130;8.378;2023-12-14T08:08:45;3.13;;;1.63;;
52248;SDS011;38541;48.130;8.378;2023-12-14T08:11:11;2.72;;;2.00;;
52248;SDS011;38541;48.130;8.378;2023-12-14T08:13:38;3.40;;;2.08;;
52248;SDS011;38541;48.130;8.378;2023-12-14T08:16:07;2.95;;;2.30;;
52248;SDS011;38541;48.130;8.378;2023-12-14T08:18:34;2.58;;;2.28;;
52248;SDS011;38541;48.130;8.378;2023-12-14T08:21:00;2.33;;;1.73;;
52248;SDS011;38541;48.130;8.378;2023-12-14T08:23:27;2.10;;;1.67;;
52248;SDS011;38541;48.130;8.378;2023-12-14T08:25:56;1.60;;;1.27;;
52248;SDS011;38541;48.130;8.378;2023-12-14T08:28:24;1.35;;;1.25;;
52248;SDS011;38541;48.130;8.378;2023-12-14T08:30:51;2.50;;;1.90;;
52248;SDS011;38541;48.130;8.378;2023-12-14T08:33:18;2.08;;;1.77;;
52248;SDS011;38541;48.130;8.378;2023-12-14T08:35:44;3.65;;;2.03;;
52248;SDS011;38541;48.130;8.378;2023-12-14T08:38:11;2.15;;;1.95;;
52248;SDS011;38541;48.130;8.378;2023-12-14T08:40:38;2.92;;;1.80;;
52248;SDS011;38541;48.130;8.378;2023-12-14T08:43:05;2.92;;;2.17;;
52248;SDS011;38541;48.130;8.378;2023-12-14T08:45:32;2.00;;;1.13;;
52248;SDS011;38541;48.130;8.378;2023-12-14T08:47:59;1.27;;;1.17;;
52248;SDS011;38541;48.130;8.378;2023-12-14T08:50:25;2.03;;;1.92;;
52248;SDS011;38541;48.130;8.378;2023-12-14T08:52:52;1.33;;;1.23;;
52248;SDS011;38541;48.130;8.378;2023-12-14T08:55:21;1.60;;;1.20;;
52248;SDS011;38541;48.130;8.378;2023-12-14T08:57:48;1.05;;;1.05;;
52248;SDS011;38541;48.130;8.378;2023-12-14T09:00:14;1.90;;;1.65;;
52248;SDS011;38541;48.130;8.378;2023-12-14T09:02:42;3.15;;;2.00;;
52248;SDS011;38541;48.130;8.378;2023-12-14T09:05:10;2.42;;;1.55;;
52248;SDS011;38541;48.130;8.378;2023-12-14T09:07:41;19.88;;;10.50;;
52248;SDS011;38541;48.130;8.378;2023-12-14T09:10:07;28.90;;;12.00;;
52248;SDS011;38541;48.130;8.378;2023-12-14T09:12:34;16.30;;;7.95;;
52248;SDS011;38541;48.130;8.378;2023-12-14T09:15:01;8.20;;;4.03;;
52248;SDS011;38541;48.130;8.378;2023-12-14T09:17:28;5.80;;;3.28;;
52248;SDS011;38541;48.130;8.378;2023-12-14T09:20:03;6.88;;;4.20;;
52248;SDS011;38541;48.130;8.378;2023-12-14T09:22:31;6.15;;;3.85;;
52248;SDS011;38541;48.130;8.378;2023-12-14T09:24:58;2.50;;;1.90;;
52248;SDS011;38541;48.130;8.378;2023-12-14T09:27:24;1.40;;;1.30;;
52248;SDS011;38541;48.130;8.378;2023-12-14T09:29:51;1.10;;;1.10;;
52248;SDS011;38541;48.130;8.378;2023-12-14T09:32:17;1.02;;;0.93;;
52248;SDS011;38541;48.130;8.378;2023-12-14T09:34:44;1.20;;;1.10;;
52248;SDS011;38541;48.130;8.378;2023-12-14T09:37:10;1.15;;;0.93;;
52248;SDS011;38541;48.130;8.378;2023-12-14T09:39:39;0.80;;;0.80;;
52248;SDS011;38541;48.130;8.378;2023-12-14T09:42:06;1.08;;;1.08;;
52248;SDS011;38541;48.130;8.378;2023-12-14T09:44:36;1.05;;;1.05;;
52248;SDS011;38541;48.130;8.378;2023-12-14T09:47:03;0.85;;;0.85;;
52248;SDS011;38541;48.130;8.378;2023-12-14T09:49:31;0.95;;;0.95;;
52248;SDS011;38541;48.130;8.378;2023-12-14T09:51:58;0.93;;;0.93;;
52248;SDS011;38541;48.130;8.378;2023-12-14T09:54:26;0.80;;;0.80;;
52248;SDS011;38541;48.130;8.378;2023-12-14T09:56:53;0.70;;;0.70;;
52248;SDS011;38541;48.130;8.378;2023-12-14T09:59:20;0.80;;;0.80;;
52248;SDS011;38541;48.130;8.378;2023-12-14T10:01:48;0.70;;;0.70;;
52248;SDS011;38541;48.130;8.378;2023-12-14T10:04:15;1.88;;;1.00;;
52248;SDS011;38541;48.130;8.378;2023-12-14T10:06:44;0.90;;;0.90;;
52248;SDS011;38541;48.130;8.378;2023-12-14T10:09:11;0.95;;;0.90;;
52248;SDS011;38541;48.130;8.378;2023-12-14T10:11:44;0.88;;;0.88;;
52248;SDS011;38541;48.130;8.378;2023-12-14T10:14:21;1.00;;;1.00;;
52248;SDS011;38541;48.130;8.378;2023-12-14T10:16:51;1.00;;;1.00;;
52248;SDS011;38541;48.130;8.378;2023-12-14T10:19:23;0.80;;;0.80;;
52248;SDS011;38541;48.130;8.378;2023-12-14T10:21:50;1.73;;;0.90;;
52248;SDS011;38541;48.130;8.378;2023-12-14T10:24:17;1.00;;;1.00;;
52248;SDS011;38541;48.130;8.378;2023-12-14T10:26:46;0.82;;;0.82;;
52248;SDS011;38541;48.130;8.378;2023-12-14T10:29:14;0.95;;;0.70;;
52248;SDS011;38541;48.130;8.378;2023-12-14T10:31:41;0.80;;;0.80;;
52248;SDS011;38541;48.130;8.378;2023-12-14T10:34:09;0.70;;;0.70;;
52248;SDS011;38541;48.130;8.378;2023-12-14T10:36:38;1.17;;;1.13;;
52248;SDS011;38541;48.130;8.378;2023-12-14T10:39:06;1.23;;;1.23;;
52248;SDS011;38541;48.130;8.378;2023-12-14T10:41:37;1.10;;;1.00;;
52248;SDS011;38541;48.130;8.378;2023-12-14T10:44:05;0.90;;;0.77;;
52248;SDS011;38541;48.130;8.378;2023-12-14T10:46:55;0.70;;;0.70;;
52248;SDS011;38541;48.130;8.378;2023-12-14T10:49:25;2.88;;;1.80;;
52248;SDS011;38541;48.130;8.378;2023-12-14T10:51:52;2.25;;;1.40;;
52248;SDS011;38541;48.130;8.378;2023-12-14T10:54:23;2.60;;;2.40;;
52248;SDS011;38541;48.130;8.378;2023-12-14T10:56:59;1.38;;;1.27;;
52248;SDS011;38541;48.130;8.378;2023-12-14T10:59:26;0.88;;;0.60;;
52248;SDS011;38541;48.130;8.378;2023-12-14T11:01:54;0.70;;;0.70;;
52248;SDS011;38541;48.130;8.378;2023-12-14T11:04:21;0.57;;;0.57;;
52248;SDS011;38541;48.130;8.378;2023-12-14T11:06:48;0.52;;;0.52;;
52248;SDS011;38541;48.130;8.378;2023-12-14T11:09:17;0.88;;;0.60;;
52248;SDS011;38541;48.130;8.378;2023-12-14T11:14:26;2.10;;;0.80;;
52248;SDS011;38541;48.130;8.378;2023-12-14T11:16:54;0.70;;;0.70;;
52248;SDS011;38541;48.130;8.378;2023-12-14T11:19:29;0.80;;;0.80;;
52248;SDS011;38541;48.130;8.378;2023-12-14T11:22:08;0.80;;;0.80;;
52248;SDS011;38541;48.130;8.378;2023-12-14T11:24:37;1.70;;;0.80;;
52248;SDS011;38541;48.130;8.378;2023-12-14T11:27:07;1.90;;;1.80;;
52248;SDS011;38541;48.130;8.378;2023-12-14T11:29:36;1.42;;;1.20;;
52248;SDS011;38541;48.130;8.378;2023-12-14T11:32:05;1.17;;;1.10;;
52248;SDS011;38541;48.130;8.378;2023-12-14T11:34:33;0.80;;;0.80;;
52248;SDS011;38541;48.130;8.378;2023-12-14T11:36:59;1.00;;;1.00;;
52248;SDS011;38541;48.130;8.378;2023-12-14T11:39:29;0.90;;;0.90;;
52248;SDS011;38541;48.130;8.378;2023-12-14T11:42:02;0.93;;;0.90;;
52248;SDS011;38541;48.130;8.378;2023-12-14T11:44:30;0.93;;;0.93;;
52248;SDS011;38541;48.130;8.378;2023-12-14T11:46:57;1.33;;;1.30;;
52248;SDS011;38541;48.130;8.378;2023-12-14T11:49:24;1.00;;;0.85;;
52248;SDS011;38541;48.130;8.378;2023-12-14T11:51:54;1.20;;;1.10;;
52248;SDS011;38541;48.130;8.378;2023-12-14T11:54:21;1.10;;;1.10;;
52248;SDS011;38541;48.130;8.378;2023-12-14T11:56:48;1.05;;;1.05;;
52248;SDS011;38541;48.130;8.378;2023-12-14T11:59:16;1.10;;;1.10;;
52248;SDS011;38541;48.130;8.378;2023-12-14T12:01:54;0.90;;;0.80;;
52248;SDS011;38541;48.130;8.378;2023-12-14T12:04:24;0.70;;;0.70;;
52248;SDS011;38541;48.130;8.378;2023-12-14T12:07:01;0.70;;;0.70;;
52248;SDS011;38541;48.130;8.378;2023-12-14T12:09:41;0.90;;;0.90;;
52248;SDS011;38541;48.130;8.378;2023-12-14T12:12:09;5.25;;;3.67;;
52248;SDS011;38541;48.130;8.378;2023-12-14T12:14:37;2.25;;;1.92;;
52248;SDS011;38541;48.130;8.378;2023-12-14T12:17:04;1.00;;;1.00;;
52248;SDS011;38541;48.130;8.378;2023-12-14T12:19:35;0.70;;;0.70;;
52248;SDS011;38541;48.130;8.378;2023-12-14T12:22:03;1.10;;;1.00;;
52248;SDS011;38541;48.130;8.378;2023-12-14T12:24:30;0.93;;;0.85;;
52248;SDS011;38541;48.130;8.378;2023-12-14T12:27:00;1.20;;;1.10;;
52248;SDS011;38541;48.130;8.378;2023-12-14T12:29:26;0.75;;;0.75;;
52248;SDS011;38541;48.130;8.378;2023-12-14T12:31:53;0.77;;;0.77;;
52248;SDS011;38541;48.130;8.378;2023-12-14T12:34:19;0.85;;;0.85;;
52248;SDS011;38541;48.130;8.378;2023-12-14T12:36:46;0.80;;;0.80;;
52248;SDS011;38541;48.130;8.378;2023-12-14T12:39:13;0.80;;;0.80;;
52248;SDS011;38541;48.130;8.378;2023-12-14T12:41:40;1.60;;;1.50;;
52248;SDS011;38541;48.130;8.378;2023-12-14T12:44:07;1.50;;;1.40;;
52248;SDS011;38541;48.130;8.378;2023-12-14T12:46:35;1.00;;;1.00;;
52248;SDS011;38541;48.130;8.378;2023-12-14T12:49:02;1.90;;;1.08;;
52248;SDS011;38541;48.130;8.378;2023-12-14T12:51:31;1.10;;;1.10;;
52248;SDS011;38541;48.130;8.378;2023-12-14T12:53:58;3.50;;;3.20;;
52248;SDS011;38541;48.130;8.378;2023-12-14T12:56:38;1.98;;;1.48;;
52248;SDS011;38541;48.130;8.378;2023-12-14T12:59:04;1.33;;;1.23;;
52248;SDS011;38541;48.130;8.378;2023-12-14T13:01:35;2.45;;;2.08;;
52248;SDS011;38541;48.130;8.378;2023-12-14T13:04:01;1.15;;;1.15;;
52248;SDS011;38541;48.130;8.378;2023-12-14T13:06:30;1.85;;;1.33;;
52248;SDS011;38541;48.130;8.378;2023-12-14T13:08:57;2.17;;;1.30;;
52248;SDS011;38541;48.130;8.378;2023-12-14T13:11:23;1.60;;;1.50;;
52248;SDS011;38541;48.130;8.378;2023-12-14T13:13:51;1.83;;;1.67;;
52248;SDS011;38541;48.130;8.378;2023-12-14T13:16:18;2.45;;;1.75;;
52248;SDS011;38541;48.130;8.378;2023-12-14T13:18:44;2.78;;;2.22;;
52248;SDS011;38541;48.130;8.378;2023-12-14T13:21:12;2.20;;;1.63;;
52248;SDS011;38541;48.130;8.378;2023-12-14T13:23:39;1.90;;;1.70;;
52248;SDS011;38541;48.130;8.378;2023-12-14T13:26:05;2.35;;;2.05;;
52248;SDS011;38541;48.130;8.378;2023-12-14T13:28:32;1.83;;;1.73;;
52248;SDS011;38541;48.130;8.378;2023-12-14T13:30:58;3.22;;;2.85;;
52248;SDS011;38541;48.130;8.378;2023-12-14T13:33:25;2.67;;;1.75;;
52248;SDS011;38541;48.130;8.378;2023-12-14T13:35:54;1.60;;;1.50;;
52248;SDS011;38541;48.130;8.378;2023-12-14T13:38:21;1.90;;;1.80;;
52248;SDS011;38541;48.130;8.378;2023-12-14T13:40:47;1.48;;;1.38;;
52248;SDS011;38541;48.130;8.378;2023-12-14T13:43:14;2.10;;;1.90;;
52248;SDS011;38541;48.130;8.378;2023-12-14T13:45:41;1.95;;;1.77;;
52248;SDS011;38541;48.130;8.378;2023-12-14T13:48:08;1.48;;;1.38;;
52248;SDS011;38541;48.130;8.378;2023-12-14T13:50:35;1.95;;;1.85;;
52248;SDS011;38541;48.130;8.378;2023-12-14T13:53:02;1.58;;;1.48;;
52248;SDS011;38541;48.130;8.378;2023-12-14T13:55:29;1.83;;;1.65;;
52248;SDS011;38541;48.130;8.378;2023-12-14T13:57:55;1.92;;;1.77;;
52248;SDS011;38541;48.130;8.378;2023-12-14T14:00:24;1.80;;;1.70;;
52248;SDS011;38541;48.130;8.378;2023-12-14T14:02:51;2.03;;;1.92;;
52248;SDS011;38541;48.130;8.378;2023-12-14T14:05:17;2.00;;;1.77;;
52248;SDS011;38541;48.130;8.378;2023-12-14T14:07:44;1.65;;;1.55;;
52248;SDS011;38541;48.130;8.378;2023-12-14T14:10:11;1.58;;;1.48;;
52248;SDS011;38541;48.130;8.378;2023-12-14T14:12:38;1.60;;;1.50;;
52248;SDS011;38541;48.130;8.378;2023-12-14T14:15:05;1.77;;;1.67;;
52248;SDS011;38541;48.130;8.378;2023-12-14T14:17:32;2.47;;;1.70;;
52248;SDS011;38541;48.130;8.378;2023-12-14T14:19:59;1.48;;;1.38;;
52248;SDS011;38541;48.130;8.378;2023-12-14T14:22:25;1.80;;;1.70;;
52248;SDS011;38541;48.130;8.378;2023-12-14T14:24:52;2.53;;;2.38;;
52248;SDS011;38541;48.130;8.378;2023-12-14T14:27:18;2.20;;;2.00;;
52248;SDS011;38541;48.130;8.378;2023-12-14T14:29:45;2.00;;;1.80;;
52248;SDS011;38541;48.130;8.378;2023-12-14T14:32:11;2.60;;;2.40;;
52248;SDS011;38541;48.130;8.378;2023-12-14T14:34:38;3.33;;;3.03;;
52248;SDS011;38541;48.130;8.378;2023-12-14T14:37:04;4.30;;;3.75;;
52248;SDS011;38541;48.130;8.378;2023-12-14T14:39:31;3.40;;;3.10;;
52248;SDS011;38541;48.130;8.378;2023-12-14T14:41:58;5.55;;;3.30;;
52248;SDS011;38541;48.130;8.378;2023-12-14T14:44:25;4.35;;;3.95;;
52248;SDS011;38541;48.130;8.378;2023-12-14T14:46:51;4.32;;;3.40;;
52248;SDS011;38541;48.130;8.378;2023-12-14T14:49:18;2.40;;;2.20;;
52248;SDS011;38541;48.130;8.378;2023-12-14T14:51:45;2.30;;;2.05;;
52248;SDS011;38541;48.130;8.378;2023-12-14T14:54:11;2.00;;;1.90;;